sensor_id;sensor_type;location;lat;lon;timestamp;temperature;humidity
53065;DHT22;38948;48.376;-4.312;2022-10-16T15:46:06;23.30;69.80
53065;DHT22;38948;48.376;-4.312;2022-10-16T15:48:34;23.30;69.80
53065;DHT22;38948;48.376;-4.312;2022-10-16T15:51:00;23.00;70.60
53065;DHT22;38948;48.376;-4.312;2022-10-16T15:53:29;22.70;71.40
53065;DHT22;38948;48.376;-4.312;2022-10-16T15:55:55;22.60;71.90
53065;DHT22;38948;48.376;-4.312;2022-10-16T15:58:21;22.50;72.50
53065;DHT22;38948;48.376;-4.312;2022-10-16T16:00:55;22.50;72.70
53065;DHT22;38948;48.376;-4.312;2022-10-16T16:03:21;22.40;72.90
53065;DHT22;38948;48.376;-4.312;2022-10-16T16:05:46;22.40;72.70
53065;DHT22;38948;48.376;-4.312;2022-10-16T16:08:12;22.40;72.80
53065;DHT22;38948;48.376;-4.312;2022-10-16T16:10:38;22.40;72.90
53065;DHT22;38948;48.376;-4.312;2022-10-16T16:13:04;22.40;72.90
53065;DHT22;38948;48.376;-4.312;2022-10-16T16:15:32;22.40;72.90
53065;DHT22;38948;48.376;-4.312;2022-10-16T16:17:58;22.40;72.90
53065;DHT22;38948;48.376;-4.312;2022-10-16T16:20:24;22.40;73.00
53065;DHT22;38948;48.376;-4.312;2022-10-16T16:22:50;22.40;73.00
53065;DHT22;38948;48.376;-4.312;2022-10-16T16:25:16;22.40;73.10
53065;DHT22;38948;48.376;-4.312;2022-10-16T16:27:41;22.50;73.20
53065;DHT22;38948;48.376;-4.312;2022-10-16T16:30:11;22.50;73.00
53065;DHT22;38948;48.376;-4.312;2022-10-16T16:32:37;22.50;73.00
53065;DHT22;38948;48.376;-4.312;2022-10-16T16:35:04;22.50;73.10
53065;DHT22;38948;48.376;-4.312;2022-10-16T16:37:30;22.50;73.00
53065;DHT22;38948;48.376;-4.312;2022-10-16T16:39:56;22.50;73.10
53065;DHT22;38948;48.376;-4.312;2022-10-16T16:42:27;22.50;73.00
53065;DHT22;38948;48.376;-4.312;2022-10-16T16:44:53;22.40;73.00
53065;DHT22;38948;48.376;-4.312;2022-10-16T16:47:19;22.40;73.20
53065;DHT22;38948;48.376;-4.312;2022-10-16T16:49:45;22.40;73.10
53065;DHT22;38948;48.376;-4.312;2022-10-16T16:52:14;22.40;73.10
53065;DHT22;38948;48.376;-4.312;2022-10-16T16:54:40;22.40;73.10
53065;DHT22;38948;48.376;-4.312;2022-10-16T16:57:06;22.30;73.30
53065;DHT22;38948;48.376;-4.312;2022-10-16T16:59:31;22.30;73.20
53065;DHT22;38948;48.376;-4.312;2022-10-16T17:02:00;22.30;73.20
53065;DHT22;38948;48.376;-4.312;2022-10-16T17:04:27;22.30;73.50
53065;DHT22;38948;48.376;-4.312;2022-10-16T17:06:54;22.30;73.30
53065;DHT22;38948;48.376;-4.312;2022-10-16T17:09:20;22.30;73.10
53065;DHT22;38948;48.376;-4.312;2022-10-16T17:11:46;22.30;73.80
53065;DHT22;38948;48.376;-4.312;2022-10-16T17:14:14;22.30;73.20
53065;DHT22;38948;48.376;-4.312;2022-10-16T17:16:41;22.30;73.50
53065;DHT22;38948;48.376;-4.312;2022-10-16T17:19:12;22.30;73.80
53065;DHT22;38948;48.376;-4.312;2022-10-16T17:21:38;22.20;74.60
53065;DHT22;38948;48.376;-4.312;2022-10-16T17:24:04;22.20;75.30
53065;DHT22;38948;48.376;-4.312;2022-10-16T17:26:30;22.20;75.70
53065;DHT22;38948;48.376;-4.312;2022-10-16T17:28:59;22.20;75.60
53065;DHT22;38948;48.376;-4.312;2022-10-16T17:31:31;22.20;75.90
53065;DHT22;38948;48.376;-4.312;2022-10-16T17:33:58;22.20;75.40
53065;DHT22;38948;48.376;-4.312;2022-10-16T17:36:24;22.20;75.70
53065;DHT22;38948;48.376;-4.312;2022-10-16T17:38:54;22.10;75.90
53065;DHT22;38948;48.376;-4.312;2022-10-16T17:41:22;22.10;75.90
53065;DHT22;38948;48.376;-4.312;2022-10-16T17:43:49;22.10;75.70
53065;DHT22;38948;48.376;-4.312;2022-10-16T17:46:16;22.10;75.80
53065;DHT22;38948;48.376;-4.312;2022-10-16T17:48:45;22.10;75.70
53065;DHT22;38948;48.376;-4.312;2022-10-16T17:51:13;22.10;75.70
53065;DHT22;38948;48.376;-4.312;2022-10-16T17:53:39;22.10;75.90
53065;DHT22;38948;48.376;-4.312;2022-10-16T17:56:10;22.10;75.70
53065;DHT22;38948;48.376;-4.312;2022-10-16T17:58:37;22.00;75.70
53065;DHT22;38948;48.376;-4.312;2022-10-16T18:01:25;22.00;75.50
53065;DHT22;38948;48.376;-4.312;2022-10-16T18:03:57;22.00;75.80
53065;DHT22;38948;48.376;-4.312;2022-10-16T18:06:24;22.10;75.80
53065;DHT22;38948;48.376;-4.312;2022-10-16T18:08:51;22.10;75.70
53065;DHT22;38948;48.376;-4.312;2022-10-16T18:11:17;22.10;75.50
53065;DHT22;38948;48.376;-4.312;2022-10-16T18:13:42;22.00;75.40
53065;DHT22;38948;48.376;-4.312;2022-10-16T18:16:11;22.10;75.30
53065;DHT22;38948;48.376;-4.312;2022-10-16T18:18:38;22.00;75.10
53065;DHT22;38948;48.376;-4.312;2022-10-16T18:21:06;22.00;75.60
53065;DHT22;38948;48.376;-4.312;2022-10-16T18:23:35;22.00;75.30
53065;DHT22;38948;48.376;-4.312;2022-10-16T18:26:03;22.00;75.30
53065;DHT22;38948;48.376;-4.312;2022-10-16T18:28:29;22.00;75.20
53065;DHT22;38948;48.376;-4.312;2022-10-16T18:31:06;22.00;75.30
53065;DHT22;38948;48.376;-4.312;2022-10-16T18:33:34;22.00;75.30
53065;DHT22;38948;48.376;-4.312;2022-10-16T18:36:05;22.00;75.10
53065;DHT22;38948;48.376;-4.312;2022-10-16T18:38:31;22.00;75.10
53065;DHT22;38948;48.376;-4.312;2022-10-16T18:40:57;22.00;75.20
53065;DHT22;38948;48.376;-4.312;2022-10-16T18:43:27;22.00;75.30
53065;DHT22;38948;48.376;-4.312;2022-10-16T18:46:01;22.10;75.80
53065;DHT22;38948;48.376;-4.312;2022-10-16T18:48:29;22.10;75.80
53065;DHT22;38948;48.376;-4.312;2022-10-16T18:51:16;22.00;75.90
53065;DHT22;38948;48.376;-4.312;2022-10-16T18:53:44;22.00;76.00
53065;DHT22;38948;48.376;-4.312;2022-10-16T18:56:11;22.00;76.20
53065;DHT22;38948;48.376;-4.312;2022-10-16T18:58:39;22.00;76.20
53065;DHT22;38948;48.376;-4.312;2022-10-16T19:01:13;22.00;76.40
53065;DHT22;38948;48.376;-4.312;2022-10-16T19:03:40;22.00;76.50
53065;DHT22;38948;48.376;-4.312;2022-10-16T19:06:08;22.00;76.70
53065;DHT22;38948;48.376;-4.312;2022-10-16T19:08:36;22.00;76.70
53065;DHT22;38948;48.376;-4.312;2022-10-16T19:11:12;22.00;76.70
53065;DHT22;38948;48.376;-4.312;2022-10-16T19:13:38;22.00;76.90
53065;DHT22;38948;48.376;-4.312;2022-10-16T19:16:10;21.90;76.90
53065;DHT22;38948;48.376;-4.312;2022-10-16T19:18:36;21.90;77.00
53065;DHT22;38948;48.376;-4.312;2022-10-16T19:21:05;21.90;77.10
53065;DHT22;38948;48.376;-4.312;2022-10-16T19:23:32;21.90;77.10
53065;DHT22;38948;48.376;-4.312;2022-10-16T19:26:06;21.90;77.20
53065;DHT22;38948;48.376;-4.312;2022-10-16T19:28:31;21.90;77.20
53065;DHT22;38948;48.376;-4.312;2022-10-16T19:31:06;21.90;77.10
53065;DHT22;38948;48.376;-4.312;2022-10-16T19:33:32;21.90;77.10
53065;DHT22;38948;48.376;-4.312;2022-10-16T19:36:11;21.90;77.10
53065;DHT22;38948;48.376;-4.312;2022-10-16T19:38:38;21.90;77.00
53065;DHT22;38948;48.376;-4.312;2022-10-16T19:41:12;21.90;77.00
53065;DHT22;38948;48.376;-4.312;2022-10-16T19:43:38;21.90;76.90
53065;DHT22;38948;48.376;-4.312;2022-10-16T19:46:12;21.90;76.90
53065;DHT22;38948;48.376;-4.312;2022-10-16T19:48:39;21.90;76.80
53065;DHT22;38948;48.376;-4.312;2022-10-16T19:51:06;21.90;76.70
53065;DHT22;38948;48.376;-4.312;2022-10-16T19:53:35;21.90;76.60
53065;DHT22;38948;48.376;-4.312;2022-10-16T19:56:00;21.90;76.50
53065;DHT22;38948;48.376;-4.312;2022-10-16T19:58:26;21.90;76.50
53065;DHT22;38948;48.376;-4.312;2022-10-16T20:00:52;21.90;76.40
53065;DHT22;38948;48.376;-4.312;2022-10-16T20:03:19;21.90;76.40
53065;DHT22;38948;48.376;-4.312;2022-10-16T20:05:56;21.90;76.40
53065;DHT22;38948;48.376;-4.312;2022-10-16T20:08:23;21.90;76.40
53065;DHT22;38948;48.376;-4.312;2022-10-16T20:10:53;21.90;76.40
53065;DHT22;38948;48.376;-4.312;2022-10-16T20:13:20;21.90;76.40
53065;DHT22;38948;48.376;-4.312;2022-10-16T20:15:47;21.90;76.30
53065;DHT22;38948;48.376;-4.312;2022-10-16T20:18:14;21.90;76.30
53065;DHT22;38948;48.376;-4.312;2022-10-16T20:20:42;21.90;76.30
53065;DHT22;38948;48.376;-4.312;2022-10-16T20:23:08;21.90;76.30
53065;DHT22;38948;48.376;-4.312;2022-10-16T20:25:39;21.90;76.30
53065;DHT22;38948;48.376;-4.312;2022-10-16T20:28:06;21.90;76.30
53065;DHT22;38948;48.376;-4.312;2022-10-16T20:30:37;21.90;76.30
53065;DHT22;38948;48.376;-4.312;2022-10-16T20:33:06;21.90;76.30
53065;DHT22;38948;48.376;-4.312;2022-10-16T20:35:39;21.90;76.40
53065;DHT22;38948;48.376;-4.312;2022-10-16T20:38:05;21.90;76.60
53065;DHT22;38948;48.376;-4.312;2022-10-16T20:40:36;21.90;76.70
53065;DHT22;38948;48.376;-4.312;2022-10-16T20:43:03;21.90;76.70
53065;DHT22;38948;48.376;-4.312;2022-10-16T20:45:29;21.90;76.70
53065;DHT22;38948;48.376;-4.312;2022-10-16T20:47:55;21.90;76.70
53065;DHT22;38948;48.376;-4.312;2022-10-16T20:50:21;21.90;77.00
53065;DHT22;38948;48.376;-4.312;2022-10-16T20:52:46;21.80;77.10
53065;DHT22;38948;48.376;-4.312;2022-10-16T20:55:12;21.80;77.30
53065;DHT22;38948;48.376;-4.312;2022-10-16T20:57:40;21.80;77.30
53065;DHT22;38948;48.376;-4.312;2022-10-16T21:00:07;21.80;77.30
53065;DHT22;38948;48.376;-4.312;2022-10-16T21:02:33;21.80;77.30
53065;DHT22;38948;48.376;-4.312;2022-10-16T21:04:59;21.80;77.40
53065;DHT22;38948;48.376;-4.312;2022-10-16T21:07:26;21.70;77.50
53065;DHT22;38948;48.376;-4.312;2022-10-16T21:09:54;21.70;77.60
53065;DHT22;38948;48.376;-4.312;2022-10-16T21:12:22;21.70;77.60
53065;DHT22;38948;48.376;-4.312;2022-10-16T21:14:47;21.70;77.80
53065;DHT22;38948;48.376;-4.312;2022-10-16T21:17:13;21.60;77.90
53065;DHT22;38948;48.376;-4.312;2022-10-16T21:19:39;21.60;78.00
53065;DHT22;38948;48.376;-4.312;2022-10-16T21:22:04;21.60;78.00
53065;DHT22;38948;48.376;-4.312;2022-10-16T21:24:30;21.50;78.10
53065;DHT22;38948;48.376;-4.312;2022-10-16T21:26:56;21.50;78.00
53065;DHT22;38948;48.376;-4.312;2022-10-16T21:29:22;21.50;78.10
53065;DHT22;38948;48.376;-4.312;2022-10-16T21:31:47;21.50;78.20
53065;DHT22;38948;48.376;-4.312;2022-10-16T21:34:13;21.40;78.30
53065;DHT22;38948;48.376;-4.312;2022-10-16T21:36:40;21.40;78.30
53065;DHT22;38948;48.376;-4.312;2022-10-16T21:39:14;21.40;78.30
53065;DHT22;38948;48.376;-4.312;2022-10-16T21:41:42;21.40;78.40
53065;DHT22;38948;48.376;-4.312;2022-10-16T21:44:09;21.30;78.50
53065;DHT22;38948;48.376;-4.312;2022-10-16T21:46:37;21.30;78.50
53065;DHT22;38948;48.376;-4.312;2022-10-16T21:49:05;21.30;78.60
53065;DHT22;38948;48.376;-4.312;2022-10-16T21:51:34;21.30;78.60
53065;DHT22;38948;48.376;-4.312;2022-10-16T21:54:01;21.30;78.60
53065;DHT22;38948;48.376;-4.312;2022-10-16T21:56:27;21.30;78.60
53065;DHT22;38948;48.376;-4.312;2022-10-16T21:58:53;21.30;78.60
53065;DHT22;38948;48.376;-4.312;2022-10-16T22:01:22;21.30;78.60
53065;DHT22;38948;48.376;-4.312;2022-10-16T22:03:48;21.20;78.60
53065;DHT22;38948;48.376;-4.312;2022-10-16T22:06:16;21.20;78.60
53065;DHT22;38948;48.376;-4.312;2022-10-16T22:08:44;21.20;78.60
53065;DHT22;38948;48.376;-4.312;2022-10-16T22:11:13;21.20;78.60
53065;DHT22;38948;48.376;-4.312;2022-10-16T22:13:39;21.20;78.70
53065;DHT22;38948;48.376;-4.312;2022-10-16T22:16:06;21.20;78.70
53065;DHT22;38948;48.376;-4.312;2022-10-16T22:18:33;21.20;78.70
53065;DHT22;38948;48.376;-4.312;2022-10-16T22:20:59;21.20;78.70
53065;DHT22;38948;48.376;-4.312;2022-10-16T22:23:25;21.20;78.70
53065;DHT22;38948;48.376;-4.312;2022-10-16T22:25:51;21.20;78.70
53065;DHT22;38948;48.376;-4.312;2022-10-16T22:28:17;21.20;78.70
53065;DHT22;38948;48.376;-4.312;2022-10-16T22:30:43;21.20;78.70
53065;DHT22;38948;48.376;-4.312;2022-10-16T22:33:09;21.20;78.70
53065;DHT22;38948;48.376;-4.312;2022-10-16T22:35:36;21.20;78.70
53065;DHT22;38948;48.376;-4.312;2022-10-16T22:38:03;21.20;78.70
53065;DHT22;38948;48.376;-4.312;2022-10-16T22:40:29;21.10;78.70
53065;DHT22;38948;48.376;-4.312;2022-10-16T22:42:55;21.10;78.80
53065;DHT22;38948;48.376;-4.312;2022-10-16T22:45:22;21.10;78.80
53065;DHT22;38948;48.376;-4.312;2022-10-16T22:47:47;21.10;78.70
53065;DHT22;38948;48.376;-4.312;2022-10-16T22:50:13;21.10;78.80
53065;DHT22;38948;48.376;-4.312;2022-10-16T22:52:39;21.10;78.70
53065;DHT22;38948;48.376;-4.312;2022-10-16T22:55:05;21.10;78.80
53065;DHT22;38948;48.376;-4.312;2022-10-16T22:57:31;21.10;78.80
53065;DHT22;38948;48.376;-4.312;2022-10-16T22:59:56;21.10;78.80
53065;DHT22;38948;48.376;-4.312;2022-10-16T23:02:22;21.10;78.80
53065;DHT22;38948;48.376;-4.312;2022-10-16T23:04:48;21.10;78.80
53065;DHT22;38948;48.376;-4.312;2022-10-16T23:07:14;21.10;78.80
53065;DHT22;38948;48.376;-4.312;2022-10-16T23:09:39;21.10;78.80
53065;DHT22;38948;48.376;-4.312;2022-10-16T23:12:05;21.10;78.80
53065;DHT22;38948;48.376;-4.312;2022-10-16T23:14:31;21.10;78.80
53065;DHT22;38948;48.376;-4.312;2022-10-16T23:16:57;21.10;78.80
53065;DHT22;38948;48.376;-4.312;2022-10-16T23:19:22;21.10;78.70
53065;DHT22;38948;48.376;-4.312;2022-10-16T23:21:48;21.10;78.70
53065;DHT22;38948;48.376;-4.312;2022-10-16T23:24:14;21.10;78.80
53065;DHT22;38948;48.376;-4.312;2022-10-16T23:26:40;21.10;78.80
53065;DHT22;38948;48.376;-4.312;2022-10-16T23:29:05;21.10;78.80
53065;DHT22;38948;48.376;-4.312;2022-10-16T23:31:31;21.10;78.80
53065;DHT22;38948;48.376;-4.312;2022-10-16T23:33:58;21.10;78.80
53065;DHT22;38948;48.376;-4.312;2022-10-16T23:36:24;21.10;78.80
53065;DHT22;38948;48.376;-4.312;2022-10-16T23:38:50;21.00;78.90
53065;DHT22;38948;48.376;-4.312;2022-10-16T23:41:17;21.10;78.80
53065;DHT22;38948;48.376;-4.312;2022-10-16T23:43:43;21.00;78.80
53065;DHT22;38948;48.376;-4.312;2022-10-16T23:46:11;21.00;78.80
53065;DHT22;38948;48.376;-4.312;2022-10-16T23:48:37;21.00;78.80
53065;DHT22;38948;48.376;-4.312;2022-10-16T23:51:04;21.00;78.80
53065;DHT22;38948;48.376;-4.312;2022-10-16T23:53:30;21.00;78.80
53065;DHT22;38948;48.376;-4.312;2022-10-16T23:55:56;21.00;78.90
53065;DHT22;38948;48.376;-4.312;2022-10-16T23:58:21;21.00;78.80
